createdAt,value
2022-12-28T00:00:52.951Z,102472.88
2022-12-28T00:01:56.386Z,102471.47
2022-12-28T00:02:59.313Z,102464.81
2022-12-28T00:04:05.956Z,102467.47
2022-12-28T00:05:09.368Z,102471.88
2022-12-28T00:06:13.514Z,102467.22
2022-12-28T00:07:16.059Z,102465.78
2022-12-28T00:08:19.459Z,102467.38
2022-12-28T00:09:21.754Z,102464.59
2022-12-28T00:11:07.716Z,102460.38
2022-12-28T00:11:47.393Z,102462.41
2022-12-28T00:12:50.710Z,102459.75
2022-12-28T00:13:53.004Z,102456.44
2022-12-28T00:14:56.528Z,102459.09
2022-12-28T00:15:59.164Z,102457.53
2022-12-28T00:17:02.964Z,102453.41
2022-12-28T00:18:05.361Z,102454.13
2022-12-28T00:19:14.251Z,102451.69
2022-12-28T00:20:16.835Z,102450.63
2022-12-28T00:21:20.268Z,102442.94
2022-12-28T00:22:23.019Z,102446.84
2022-12-28T00:23:26.877Z,102441.53
2022-12-28T00:24:29.240Z,102446.03
2022-12-28T00:25:32.622Z,102437.19
2022-12-28T00:26:36.226Z,102447.28
2022-12-28T00:27:40.023Z,102436.03
2022-12-28T00:28:42.286Z,102439.25
2022-12-28T00:29:46.018Z,102434.59
2022-12-28T00:30:48.649Z,102436.19
2022-12-28T00:31:52.057Z,102441.84
2022-12-28T00:32:54.499Z,102438.66
2022-12-28T00:33:57.963Z,102436.06
2022-12-28T00:35:02.640Z,102436.03
2022-12-28T00:36:05.449Z,102427.97
2022-12-28T00:37:12.935Z,102429.38
2022-12-28T00:38:15.788Z,102429.16
2022-12-28T00:39:19.310Z,102435.41
2022-12-28T00:40:24.261Z,102427.34
2022-12-28T00:41:26.855Z,102426.97
2022-12-28T00:42:30.346Z,102434.41
2022-12-28T00:43:33.053Z,102425.13
2022-12-28T00:44:36.424Z,102427.38
2022-12-28T00:45:39.304Z,102429.41
2022-12-28T00:46:42.920Z,102425.56
2022-12-28T00:47:45.429Z,102422.50
2022-12-28T00:48:48.874Z,102415.09
2022-12-28T00:49:51.230Z,102419.09
2022-12-28T00:51:03.293Z,102407.81
2022-12-28T00:52:05.846Z,102414.06
2022-12-28T00:53:09.262Z,102409.63
2022-12-28T00:54:11.640Z,102403.00
2022-12-28T00:55:15.012Z,102407.41
2022-12-28T00:56:19.223Z,102399.75
2022-12-28T00:57:22.593Z,102408.63
2022-12-28T00:58:24.869Z,102391.50
2022-12-28T00:59:28.727Z,102393.31
2022-12-28T01:00:32.039Z,102392.31
2022-12-28T01:01:35.690Z,102398.94
2022-12-28T01:02:38.426Z,102400.97
2022-12-28T01:03:41.908Z,102398.94
2022-12-28T01:04:44.258Z,102393.91
2022-12-28T01:05:47.631Z,102398.34
2022-12-28T01:06:51.530Z,102397.53
2022-12-28T01:07:54.956Z,102397.13
2022-12-28T01:08:57.247Z,102393.50
2022-12-28T01:10:00.677Z,102403.97
2022-12-28T01:11:08.424Z,102402.94
2022-12-28T01:12:11.862Z,102398.00
2022-12-28T01:13:14.495Z,102400.44
2022-12-28T01:14:17.955Z,102393.81
2022-12-28T01:15:20.768Z,102401.88
2022-12-28T01:16:26.672Z,102402.47
2022-12-28T01:17:30.062Z,102395.88
2022-12-28T01:18:33.390Z,102397.91
2022-12-28T01:19:36.533Z,102396.31
2022-12-28T01:20:40.990Z,102399.13
2022-12-28T01:21:43.231Z,102399.50
2022-12-28T01:22:48.042Z,102396.94
2022-12-28T01:23:53.552Z,102400.38
2022-12-28T01:24:56.916Z,102400.38
2022-12-28T01:26:02.181Z,102402.19
2022-12-28T01:27:05.683Z,102397.31
2022-12-28T01:28:08.127Z,102402.59
2022-12-28T01:29:11.602Z,102400.34
2022-12-28T01:30:14.729Z,102397.34
2022-12-28T01:31:20.308Z,102402.34
2022-12-28T01:32:22.790Z,102397.69
2022-12-28T01:33:26.142Z,102403.88
2022-12-28T01:34:28.449Z,102395.50
2022-12-28T01:35:31.823Z,102395.06
2022-12-28T01:36:35.171Z,102398.31
2022-12-28T01:37:38.400Z,102400.69
2022-12-28T01:38:42.932Z,102402.94
2022-12-28T01:39:46.213Z,102406.69
2022-12-28T01:40:48.616Z,102391.91
2022-12-28T01:41:52.045Z,102399.88
2022-12-28T01:42:54.355Z,102398.63
2022-12-28T01:44:35.009Z,102393.72
2022-12-28T01:45:37.480Z,102392.13
2022-12-28T01:46:43.900Z,102395.91
2022-12-28T01:47:49.558Z,102400.16
2022-12-28T01:48:57.741Z,102395.06
2022-12-28T01:50:07.128Z,102390.31
2022-12-28T01:51:09.432Z,102394.97
2022-12-28T01:52:16.803Z,102388.56
2022-12-28T01:53:20.905Z,102387.78
2022-12-28T01:54:28.468Z,102388.25
2022-12-28T01:55:33.762Z,102395.31
2022-12-28T01:56:38.058Z,102397.72
2022-12-28T01:57:43.829Z,102388.84
2022-12-28T01:58:48.103Z,102393.66
2022-12-28T01:59:54.906Z,102394.06
2022-12-28T02:00:58.890Z,102390.06
2022-12-28T02:02:01.728Z,102386.81
2022-12-28T02:03:09.056Z,102393.47
2022-12-28T02:04:12.079Z,102390.38
2022-12-28T02:05:16.864Z,102388.63
2022-12-28T02:06:20.438Z,102388.63
2022-12-28T02:07:37.425Z,102398.50
2022-12-28T02:08:44.072Z,102386.97
2022-12-28T02:10:44.412Z,102389.50
2022-12-28T02:11:16.247Z,102394.34
2022-12-28T02:12:19.802Z,102384.00
2022-12-28T02:13:25.139Z,102388.97
2022-12-28T02:14:27.749Z,102383.94
2022-12-28T02:15:31.290Z,102383.59
2022-12-28T02:16:33.902Z,102382.63
2022-12-28T02:17:37.627Z,102381.00
2022-12-28T02:18:42.985Z,102385.84
2022-12-28T02:19:50.393Z,102382.84
2022-12-28T02:21:17.739Z,102377.38
2022-12-28T02:22:50.338Z,102377.00
2022-12-28T02:24:28.966Z,102383.41
2022-12-28T02:26:05.020Z,102375.31
2022-12-28T02:27:19.594Z,102375.50
2022-12-28T02:28:46.009Z,102383.56
2022-12-28T02:30:08.973Z,102384.59
2022-12-28T02:31:18.007Z,102380.41
2022-12-28T02:32:35.198Z,102384.25
2022-12-28T02:33:44.615Z,102386.25
2022-12-28T02:34:54.742Z,102383.53
2022-12-28T02:36:01.296Z,102383.91
2022-12-28T02:37:11.777Z,102377.38
2022-12-28T02:38:19.866Z,102372.56
2022-12-28T02:39:27.510Z,102374.75
2022-12-28T02:40:35.757Z,102372.16
2022-12-28T02:41:41.408Z,102373.97
2022-12-28T02:42:46.717Z,102375.09
2022-12-28T02:43:50.767Z,102373.47
2022-12-28T02:45:13.059Z,102369.47
2022-12-28T02:46:38.695Z,102369.81
2022-12-28T02:48:02.056Z,102371.44
2022-12-28T02:49:51.520Z,102368.66
2022-12-28T02:51:07.050Z,102367.31
2022-12-28T02:52:18.703Z,102363.47
2022-12-28T02:53:38.695Z,102365.69
2022-12-28T02:55:27.937Z,102373.56
2022-12-28T02:56:40.515Z,102370.94
2022-12-28T02:58:01.640Z,102363.16
2022-12-28T02:59:24.250Z,102369.06
2022-12-28T03:00:35.325Z,102366.66
2022-12-28T03:02:08.925Z,102360.25
2022-12-28T03:03:21.861Z,102353.41
2022-12-28T03:04:31.028Z,102361.66
2022-12-28T03:05:57.998Z,102363.91
2022-12-28T03:07:28.101Z,102355.63
2022-12-28T03:08:38.717Z,102357.84
2022-12-28T03:09:48.135Z,102353.00
2022-12-28T03:10:56.417Z,102347.38
2022-12-28T03:12:07.617Z,102345.16
2022-12-28T03:13:28.708Z,102351.00
2022-12-28T03:14:37.610Z,102349.97
2022-12-28T03:15:41.585Z,102344.13
2022-12-28T03:17:08.823Z,102347.16
2022-12-28T03:18:33.956Z,102350.06
2022-12-28T03:19:58.399Z,102341.84
2022-12-28T03:21:23.654Z,102347.22
2022-12-28T03:22:49.157Z,102341.63
2022-12-28T03:24:11.529Z,102343.59
2022-12-28T03:25:37.869Z,102340.63
2022-12-28T03:27:03.817Z,102335.50
2022-12-28T03:28:27.830Z,102337.31
2022-12-28T03:29:53.085Z,102338.81
2022-12-28T03:31:06.936Z,102330.97
2022-12-28T03:32:10.308Z,102338.63
2022-12-28T03:33:14.541Z,102335.97
2022-12-28T03:34:17.622Z,102325.34
2022-12-28T03:35:24.883Z,102341.28
2022-12-28T03:36:32.138Z,102337.63
2022-12-28T03:37:42.173Z,102336.41
2022-12-28T03:38:53.420Z,102336.63
2022-12-28T03:40:01.696Z,102338.03
2022-12-28T03:41:08.304Z,102337.03
2022-12-28T03:42:34.906Z,102339.84
2022-12-28T03:43:47.214Z,102334.41
2022-12-28T03:44:56.842Z,102335.72
2022-12-28T03:46:06.091Z,102329.78
2022-12-28T03:47:11.465Z,102331.38
2022-12-28T03:48:16.528Z,102330.66
2022-12-28T03:49:19.547Z,102324.34
2022-12-28T03:50:24.375Z,102331.16
2022-12-28T03:51:31.247Z,102328.13
2022-12-28T03:52:34.941Z,102330.59
2022-12-28T03:53:41.487Z,102335.34
2022-12-28T03:54:45.755Z,102327.78
2022-12-28T03:55:48.187Z,102331.94
2022-12-28T03:56:53.361Z,102334.25
2022-12-28T03:57:56.872Z,102335.47
2022-12-28T03:59:00.541Z,102329.22
2022-12-28T04:00:04.095Z,102327.00
2022-12-28T04:01:09.306Z,102321.41
2022-12-28T04:02:12.068Z,102328.63
2022-12-28T04:03:15.715Z,102323.34
2022-12-28T04:04:18.383Z,102333.03
2022-12-28T04:05:22.294Z,102327.00
2022-12-28T04:06:24.815Z,102326.78
2022-12-28T04:07:29.487Z,102327.19
2022-12-28T04:08:32.972Z,102326.38
2022-12-28T04:09:36.237Z,102329.44
2022-12-28T04:10:38.978Z,102317.44
2022-12-28T04:11:42.808Z,102326.66
2022-12-28T04:12:45.543Z,102323.00
2022-12-28T04:13:49.067Z,102328.22
2022-12-28T04:14:51.459Z,102329.31
2022-12-28T04:15:59.879Z,102325.09
2022-12-28T04:17:03.664Z,102323.75
2022-12-28T04:18:07.001Z,102321.44
2022-12-28T04:19:10.520Z,102323.28
2022-12-28T04:20:14.098Z,102319.63
2022-12-28T04:21:16.674Z,102328.41
2022-12-28T04:22:19.962Z,102314.81
2022-12-28T04:23:22.417Z,102320.25
2022-12-28T04:24:26.914Z,102323.75
2022-12-28T04:25:29.280Z,102317.25
2022-12-28T04:26:32.734Z,102316.78
2022-12-28T04:27:35.560Z,102318.19
2022-12-28T04:28:39.511Z,102308.72
2022-12-28T04:29:41.827Z,102307.44
2022-12-28T04:30:46.721Z,102307.66
2022-12-28T04:31:50.116Z,102308.47
2022-12-28T04:32:55.759Z,102303.25
2022-12-28T04:33:59.509Z,102302.38
2022-12-28T04:35:02.002Z,102302.75
2022-12-28T04:36:07.124Z,102300.41
2022-12-28T04:37:09.531Z,102298.56
2022-12-28T04:38:12.950Z,102297.56
2022-12-28T04:39:15.261Z,102290.34
2022-12-28T04:40:18.719Z,102295.19
2022-12-28T04:41:21.178Z,102296.22
2022-12-28T04:42:25.399Z,102295.69
2022-12-28T04:43:27.851Z,102292.25
2022-12-28T04:44:32.407Z,102296.03
2022-12-28T04:45:35.195Z,102295.69
2022-12-28T04:46:39.076Z,102287.28
2022-12-28T04:47:41.635Z,102295.13
2022-12-28T04:48:46.558Z,102293.88
2022-12-28T04:49:48.985Z,102291.69
2022-12-28T04:50:52.783Z,102295.31
2022-12-28T04:51:55.453Z,102294.56
2022-12-28T04:53:00.494Z,102288.13
2022-12-28T04:54:03.465Z,102288.72
2022-12-28T04:55:07.381Z,102281.28
2022-12-28T04:56:30.848Z,102284.09
2022-12-28T04:57:33.481Z,102279.31
2022-12-28T04:58:37.602Z,102280.72
2022-12-28T04:59:40.636Z,102276.91
2022-12-28T05:00:44.191Z,102277.69
2022-12-28T05:01:46.818Z,102276.88
2022-12-28T05:02:50.294Z,102278.47
2022-12-28T05:03:58.063Z,102287.75
2022-12-28T05:05:03.320Z,102270.03
2022-12-28T05:06:08.403Z,102274.06
2022-12-28T05:07:11.930Z,102278.44
2022-12-28T05:08:14.307Z,102277.06
2022-12-28T05:09:19.550Z,102274.03
2022-12-28T05:10:22.245Z,102270.81
2022-12-28T05:11:27.722Z,102268.41
2022-12-28T05:12:30.095Z,102268.63
2022-12-28T05:13:33.868Z,102270.41
2022-12-28T05:14:37.384Z,102267.19
2022-12-28T05:15:40.933Z,102260.94
2022-12-28T05:16:43.494Z,102268.00
2022-12-28T05:17:48.724Z,102261.16
2022-12-28T05:18:51.255Z,102274.63
2022-12-28T05:19:56.397Z,102264.78
2022-12-28T05:21:00.662Z,102260.56
2022-12-28T05:22:04.478Z,102261.59
2022-12-28T05:23:07.263Z,102265.81
2022-12-28T05:24:10.953Z,102264.56
2022-12-28T05:25:13.293Z,102265.56
2022-12-28T05:26:19.072Z,102268.19
2022-12-28T05:27:21.509Z,102270.41
2022-12-28T05:28:25.743Z,102265.19
2022-12-28T05:29:28.220Z,102262.34
2022-12-28T05:30:31.954Z,102267.97
2022-12-28T05:31:34.367Z,102271.59
2022-12-28T05:32:37.805Z,102271.19
2022-12-28T05:33:40.498Z,102259.66
2022-12-28T05:34:43.963Z,102269.50
2022-12-28T05:35:47.870Z,102266.31
2022-12-28T05:36:51.340Z,102266.13
2022-12-28T05:37:53.690Z,102264.31
2022-12-28T05:38:58.129Z,102264.34
2022-12-28T05:40:01.836Z,102263.53
2022-12-28T05:41:07.199Z,102265.69
2022-12-28T05:42:09.612Z,102263.91
2022-12-28T05:43:13.056Z,102261.25
2022-12-28T05:44:16.777Z,102264.88
2022-12-28T05:45:19.408Z,102263.31
2022-12-28T05:46:25.629Z,102263.50
2022-12-28T05:47:29.374Z,102263.09
2022-12-28T05:48:33.010Z,102261.13
2022-12-28T05:49:36.572Z,102261.75
2022-12-28T05:50:39.178Z,102259.53
2022-12-28T05:51:44.265Z,102255.31
2022-12-28T05:52:47.129Z,102258.75
2022-12-28T05:53:50.807Z,102255.16
2022-12-28T05:54:53.355Z,102253.53
2022-12-28T05:56:02.167Z,102258.25
2022-12-28T05:57:05.989Z,102255.47
2022-12-28T05:58:09.710Z,102253.44
2022-12-28T05:59:14.575Z,102253.28
2022-12-28T06:00:17.641Z,102250.28
2022-12-28T06:01:25.331Z,102245.84
2022-12-28T06:02:29.253Z,102245.66
2022-12-28T06:03:31.964Z,102247.84
2022-12-28T06:04:35.719Z,102247.88
2022-12-28T06:05:38.046Z,102246.44
2022-12-28T06:06:41.480Z,102253.22
2022-12-28T06:07:45.265Z,102245.22
2022-12-28T06:08:50.194Z,102249.66
2022-12-28T06:09:53.521Z,102244.66
2022-12-28T06:11:00.123Z,102252.91
2022-12-28T06:12:04.914Z,102249.84
2022-12-28T06:13:07.365Z,102248.63
2022-12-28T06:14:11.101Z,102245.84
2022-12-28T06:15:13.474Z,102241.63
2022-12-28T06:16:18.907Z,102244.44
2022-12-28T06:17:21.691Z,102240.44
2022-12-28T06:18:25.457Z,102238.22
2022-12-28T06:19:28.141Z,102240.59
2022-12-28T06:20:31.717Z,102243.22
2022-12-28T06:21:36.104Z,102247.28
2022-12-28T06:22:39.605Z,102245.25
2022-12-28T06:23:44.097Z,102245.44
2022-12-28T06:24:47.596Z,102244.44
2022-12-28T06:25:49.962Z,102247.63
2022-12-28T06:26:53.449Z,102244.59
2022-12-28T06:27:55.737Z,102247.88
2022-12-28T06:28:59.516Z,102249.06
2022-12-28T06:30:01.868Z,102250.91
2022-12-28T06:31:06.828Z,102243.25
2022-12-28T06:32:10.391Z,102245.69
2022-12-28T06:33:13.191Z,102248.31
2022-12-28T06:34:16.628Z,102248.09
2022-12-28T06:35:19.359Z,102249.69
2022-12-28T06:36:25.216Z,102257.13
2022-12-28T06:37:27.672Z,102255.09
2022-12-28T06:38:34.666Z,102252.72
2022-12-28T06:39:38.413Z,102252.31
2022-12-28T06:41:12.439Z,102260.16
2022-12-28T06:42:06.004Z,102260.56
2022-12-28T06:43:08.488Z,102259.50
2022-12-28T06:44:14.246Z,102267.59
2022-12-28T06:45:16.941Z,102259.94
2022-12-28T06:46:22.667Z,102254.72
2022-12-28T06:47:26.221Z,102249.69
2022-12-28T06:48:30.357Z,102259.53
2022-12-28T06:49:33.985Z,102259.50
2022-12-28T06:50:40.082Z,102258.72
2022-12-28T06:51:43.682Z,102257.09
2022-12-28T06:52:46.238Z,102256.25
2022-12-28T06:53:51.183Z,102249.97
2022-12-28T06:54:55.071Z,102250.00
2022-12-28T06:55:59.921Z,102259.88
2022-12-28T06:57:02.351Z,102254.44
2022-12-28T06:58:05.962Z,102253.22
2022-12-28T06:59:08.593Z,102252.97
2022-12-28T07:00:13.548Z,102253.44
2022-12-28T07:01:18.158Z,102252.25
2022-12-28T07:02:22.123Z,102254.50
2022-12-28T07:03:25.421Z,102254.50
2022-12-28T07:04:28.922Z,102248.63
2022-12-28T07:05:32.301Z,102253.69
2022-12-28T07:06:38.569Z,102244.63
2022-12-28T07:07:40.939Z,102252.09
2022-12-28T07:08:44.872Z,102251.09
2022-12-28T07:09:48.335Z,102249.66
2022-12-28T07:10:52.408Z,102252.47
2022-12-28T07:11:55.830Z,102255.31
2022-12-28T07:12:58.130Z,102252.47
2022-12-28T07:14:01.640Z,102258.91
2022-12-28T07:15:04.435Z,102251.06
2022-12-28T07:16:11.305Z,102251.28
2022-12-28T07:17:14.806Z,102258.91
2022-12-28T07:18:17.193Z,102259.09
2022-12-28T07:19:20.809Z,102251.47
2022-12-28T07:20:23.554Z,102253.91
2022-12-28T07:21:28.373Z,102253.09
2022-12-28T07:22:30.878Z,102253.28
2022-12-28T07:23:34.924Z,102250.66
2022-12-28T07:24:39.446Z,102264.13
2022-12-28T07:25:41.820Z,102261.94
2022-12-28T07:26:46.596Z,102253.88
2022-12-28T07:27:49.001Z,102253.84
2022-12-28T07:28:54.730Z,102260.50
2022-12-28T07:29:58.117Z,102253.03
2022-12-28T07:31:06.082Z,102256.66
2022-12-28T07:32:09.830Z,102256.88
2022-12-28T07:33:12.346Z,102254.69
2022-12-28T07:34:17.508Z,102250.06
2022-12-28T07:35:19.855Z,102249.88
2022-12-28T07:36:25.027Z,102253.28
2022-12-28T07:37:28.552Z,102261.09
2022-12-28T07:38:31.148Z,102253.88
2022-12-28T07:39:35.325Z,102251.78
2022-12-28T07:40:37.869Z,102254.06
2022-12-28T07:41:41.280Z,102257.06
2022-12-28T07:42:45.207Z,102260.75
2022-12-28T07:43:49.323Z,102264.84
2022-12-28T07:44:52.746Z,102253.63
2022-12-28T07:46:01.924Z,102248.84
2022-12-28T07:47:05.786Z,102256.28
2022-12-28T07:48:08.192Z,102257.03
2022-12-28T07:49:11.523Z,102258.25
2022-12-28T07:50:13.863Z,102252.06
2022-12-28T07:51:19.389Z,102252.03
2022-12-28T07:52:23.012Z,102256.88
2022-12-28T07:53:25.416Z,102257.94
2022-12-28T07:54:28.909Z,102259.50
2022-12-28T07:55:32.354Z,102254.22
2022-12-28T07:57:37.970Z,102250.44
2022-12-28T07:59:44.601Z,102247.06
2022-12-28T08:00:48.028Z,102241.81
2022-12-28T08:01:52.869Z,102242.44
2022-12-28T08:02:56.407Z,102247.03
2022-12-28T08:04:02.055Z,102243.41
2022-12-28T08:05:05.038Z,102242.44
2022-12-28T08:06:11.263Z,102244.06
2022-12-28T08:07:14.706Z,102239.19
2022-12-28T08:08:17.076Z,102246.91
2022-12-28T08:09:20.456Z,102242.66
2022-12-28T08:10:22.862Z,102247.88
2022-12-28T08:11:27.797Z,102237.81
2022-12-28T08:12:31.514Z,102238.19
2022-12-28T08:13:35.650Z,102242.19
2022-12-28T08:14:40.581Z,102242.94
2022-12-28T08:15:43.175Z,102239.75
2022-12-28T08:16:46.612Z,102243.75
2022-12-28T08:17:48.930Z,102245.78
2022-12-28T08:18:53.077Z,102242.97
2022-12-28T08:19:55.727Z,102243.00
2022-12-28T08:21:03.001Z,102247.41
2022-12-28T08:22:06.722Z,102241.69
2022-12-28T08:23:09.115Z,102252.56
2022-12-28T08:24:15.574Z,102259.38
2022-12-28T08:25:17.998Z,102251.06
2022-12-28T08:26:24.928Z,102256.25
2022-12-28T08:27:32.240Z,102254.19
2022-12-28T08:28:38.461Z,102258.06
2022-12-28T08:29:43.130Z,102251.94
2022-12-28T08:30:45.480Z,102259.38
2022-12-28T08:31:49.766Z,102253.13
2022-12-28T08:32:52.146Z,102257.38
2022-12-28T08:33:57.528Z,102253.38
2022-12-28T08:34:59.842Z,102251.47
2022-12-28T08:36:03.524Z,102258.50
2022-12-28T08:37:07.162Z,102251.63
2022-12-28T08:38:09.953Z,102256.34
2022-12-28T08:39:14.710Z,102256.22
2022-12-28T08:40:17.155Z,102259.25
2022-12-28T08:41:22.614Z,102249.59
2022-12-28T08:42:24.916Z,102250.09
2022-12-28T08:43:29.310Z,102244.00
2022-12-28T08:44:32.736Z,102254.13
2022-12-28T08:45:36.628Z,102244.06
2022-12-28T08:46:41.303Z,102248.50
2022-12-28T08:47:43.726Z,102248.47
2022-12-28T08:48:48.809Z,102250.75
2022-12-28T08:49:52.200Z,102243.50
2022-12-28T08:50:55.407Z,102256.41
2022-12-28T08:51:59.298Z,102253.59
2022-12-28T08:53:01.573Z,102256.25
2022-12-28T08:54:05.352Z,102258.53
2022-12-28T08:55:09.617Z,102259.28
2022-12-28T08:56:14.083Z,102259.63
2022-12-28T08:57:17.833Z,102259.03
2022-12-28T08:58:20.233Z,102268.53
2022-12-28T08:59:23.452Z,102267.53
2022-12-28T09:00:25.921Z,102273.00
2022-12-28T09:01:35.889Z,102267.38
2022-12-28T09:02:42.911Z,102272.03
2022-12-28T09:03:50.289Z,102270.91
2022-12-28T09:04:53.760Z,102273.28
2022-12-28T09:05:56.051Z,102271.28
2022-12-28T09:06:59.396Z,102279.03
2022-12-28T09:08:01.786Z,102277.06
2022-12-28T09:09:07.428Z,102278.88
2022-12-28T09:10:11.224Z,102274.59
2022-12-28T09:11:14.283Z,102277.28
2022-12-28T09:12:17.954Z,102270.50
2022-12-28T09:13:20.437Z,102279.47
2022-12-28T09:14:24.717Z,102274.78
2022-12-28T09:15:27.507Z,102279.50
2022-12-28T09:16:32.641Z,102277.28
2022-12-28T09:17:35.225Z,102278.88
2022-12-28T09:18:39.663Z,102278.13
2022-12-28T09:19:43.203Z,102281.25
2022-12-28T09:20:48.026Z,102274.09
2022-12-28T09:21:54.015Z,102274.78
2022-12-28T09:22:56.317Z,102281.88
2022-12-28T09:24:00.137Z,102278.13
2022-12-28T09:25:03.477Z,102277.59
2022-12-28T09:26:09.106Z,102282.41
2022-12-28T09:27:12.830Z,102283.16
2022-12-28T09:28:15.477Z,102279.91
2022-12-28T09:29:18.924Z,102286.91
2022-12-28T09:30:22.491Z,102287.03
2022-12-28T09:31:26.966Z,102276.28
2022-12-28T09:32:32.143Z,102279.75
2022-12-28T09:34:33.843Z,102291.88
2022-12-28T09:35:17.224Z,102283.72
2022-12-28T09:36:19.679Z,102290.00
2022-12-28T09:37:23.127Z,102295.00
2022-12-28T09:38:25.904Z,102286.19
2022-12-28T09:39:30.087Z,102291.75
2022-12-28T09:40:34.951Z,102287.97
2022-12-28T09:41:43.713Z,102289.84
2022-12-28T09:42:46.106Z,102286.03
2022-12-28T09:43:50.815Z,102294.94
2022-12-28T09:45:00.641Z,102289.34
2022-12-28T09:46:03.591Z,102291.78
2022-12-28T09:47:17.531Z,102288.78
2022-12-28T09:48:26.818Z,102282.09
2022-12-28T09:49:40.002Z,102290.16
2022-12-28T09:50:45.296Z,102281.78
2022-12-28T09:51:53.292Z,102284.19
2022-12-28T09:53:12.775Z,102277.41
2022-12-28T09:54:16.151Z,102287.63
2022-12-28T09:55:20.852Z,102292.06
2022-12-28T09:56:28.913Z,102288.78
2022-12-28T09:57:39.017Z,102287.16
2022-12-28T09:58:47.915Z,102282.09
2022-12-28T09:59:54.755Z,102284.69
2022-12-28T10:01:00.531Z,102284.31
2022-12-28T10:02:05.966Z,102285.88
2022-12-28T10:03:17.076Z,102280.00
2022-12-28T10:04:21.952Z,102280.09
2022-12-28T10:05:28.083Z,102279.47
2022-12-28T10:06:36.963Z,102285.78
2022-12-28T10:07:39.472Z,102279.47
2022-12-28T10:08:46.502Z,102272.22
2022-12-28T10:09:50.133Z,102278.16
2022-12-28T10:10:54.269Z,102275.47
2022-12-28T10:11:57.788Z,102276.09
2022-12-28T10:13:45.573Z,102273.72
2022-12-28T10:14:38.515Z,102270.16
2022-12-28T10:15:41.345Z,102264.06
2022-12-28T10:16:48.621Z,102269.38
2022-12-28T10:17:51.631Z,102266.56
2022-12-28T10:18:55.668Z,102269.56
2022-12-28T10:20:00.977Z,102269.19
2022-12-28T10:21:03.381Z,102268.53
2022-12-28T10:22:09.801Z,102270.06
2022-12-28T10:23:18.084Z,102261.84
2022-12-28T10:24:31.397Z,102263.63
2022-12-28T10:25:35.069Z,102256.13
2022-12-28T10:26:39.525Z,102262.84
2022-12-28T10:27:42.997Z,102275.47
2022-12-28T10:28:49.568Z,102262.38
2022-12-28T10:29:52.907Z,102255.47
2022-12-28T10:31:06.571Z,102245.09
2022-12-28T10:32:12.723Z,102253.19
2022-12-28T10:33:20.970Z,102257.03
2022-12-28T10:34:24.559Z,102247.72
2022-12-28T10:35:33.338Z,102258.63
2022-12-28T10:36:36.768Z,102255.94
2022-12-28T10:37:44.910Z,102252.84
2022-12-28T10:38:53.418Z,102248.91
2022-12-28T10:39:59.100Z,102247.28
2022-12-28T10:41:05.254Z,102235.50
2022-12-28T10:42:22.944Z,102240.91
2022-12-28T10:43:30.493Z,102234.47
2022-12-28T10:44:40.440Z,102237.91
2022-12-28T10:46:01.219Z,102238.31
2022-12-28T10:47:06.848Z,102239.94
2022-12-28T10:48:16.441Z,102231.56
2022-12-28T10:49:21.721Z,102230.28
2022-12-28T10:50:57.827Z,102230.84
2022-12-28T10:52:03.712Z,102217.22
2022-12-28T10:53:16.864Z,102223.09
2022-12-28T10:54:27.676Z,102220.44
2022-12-28T10:55:34.224Z,102224.66
2022-12-28T10:56:49.632Z,102214.19
2022-12-28T10:58:27.512Z,102218.34
2022-12-28T10:59:25.638Z,102214.03
2022-12-28T11:00:29.378Z,102211.63
2022-12-28T11:01:33.639Z,102220.28
2022-12-28T11:02:36.608Z,102210.84
2022-12-28T11:03:42.785Z,102212.66
2022-12-28T11:04:54.116Z,102217.72
2022-12-28T11:06:13.269Z,102201.53
2022-12-28T11:07:29.022Z,102198.91
2022-12-28T11:08:31.564Z,102204.28
2022-12-28T11:09:36.704Z,102195.88
2022-12-28T11:10:40.535Z,102197.00
2022-12-28T11:11:45.680Z,102193.78
2022-12-28T11:12:49.030Z,102195.53
2022-12-28T11:13:57.070Z,102187.88
2022-12-28T11:15:00.079Z,102182.66
2022-12-28T11:16:08.052Z,102181.16
2022-12-28T11:17:18.668Z,102187.31
2022-12-28T11:18:21.677Z,102175.47
2022-12-28T11:19:26.912Z,102180.28
2022-12-28T11:20:34.279Z,102168.25
2022-12-28T11:21:39.903Z,102172.56
2022-12-28T11:22:42.410Z,102173.38
2022-12-28T11:23:47.826Z,102163.53
2022-12-28T11:24:50.711Z,102169.53
2022-12-28T11:25:54.219Z,102174.03
2022-12-28T11:26:58.960Z,102159.38
2022-12-28T11:28:05.590Z,102160.66
2022-12-28T11:29:12.206Z,102147.56
2022-12-28T11:30:18.121Z,102149.94
2022-12-28T11:31:29.193Z,102147.34
2022-12-28T11:32:36.660Z,102145.94
2022-12-28T11:33:43.390Z,102159.69
2022-12-28T11:34:46.081Z,102140.69
2022-12-28T11:35:52.557Z,102145.16
2022-12-28T11:37:00.640Z,102138.66
2022-12-28T11:38:05.788Z,102139.47
2022-12-28T11:39:47.226Z,102135.00
2022-12-28T11:40:52.467Z,102142.31
2022-12-28T11:42:36.679Z,102132.28
2022-12-28T11:43:40.323Z,102129.91
2022-12-28T11:44:52.064Z,102126.97
2022-12-28T11:45:56.274Z,102120.84
2022-12-28T11:47:05.382Z,102118.78
2022-12-28T11:48:42.182Z,102120.81
2022-12-28T11:49:47.388Z,102117.59
2022-12-28T11:50:52.183Z,102114.25
2022-12-28T11:52:46.732Z,102099.06
2022-12-28T11:54:00.100Z,102110.13
2022-12-28T11:55:25.273Z,102103.53
2022-12-28T11:56:50.506Z,102100.59
2022-12-28T11:57:55.263Z,102104.25
2022-12-28T11:59:23.598Z,102091.47
2022-12-28T12:00:48.334Z,102082.66
2022-12-28T12:01:54.142Z,102090.66
2022-12-28T12:02:58.530Z,102086.50
2022-12-28T12:04:39.189Z,102075.03
2022-12-28T12:05:49.464Z,102071.97
2022-12-28T12:07:15.913Z,102083.47
2022-12-28T12:08:43.064Z,102080.94
2022-12-28T12:09:49.047Z,102075.78
2022-12-28T12:11:23.279Z,102072.13
2022-12-28T12:12:37.507Z,102067.41
2022-12-28T12:13:45.667Z,102053.66
2022-12-28T12:14:50.908Z,102063.50
2022-12-28T12:15:59.270Z,102064.94
2022-12-28T12:17:05.824Z,102052.22
2022-12-28T12:18:19.481Z,102060.59
2022-12-28T12:19:27.058Z,102049.22
2022-12-28T12:20:45.019Z,102047.50
2022-12-28T12:22:00.381Z,102039.34
2022-12-28T12:23:07.715Z,102040.84
2022-12-28T12:24:26.812Z,102044.69
2022-12-28T12:25:37.658Z,102035.56
2022-12-28T12:26:47.716Z,102035.78
2022-12-28T12:27:55.690Z,102025.31
2022-12-28T12:29:05.422Z,102034.66
2022-12-28T12:30:15.934Z,102029.53
2022-12-28T12:31:29.856Z,102037.16
2022-12-28T12:32:40.148Z,102027.56
2022-12-28T12:33:48.755Z,102026.06
2022-12-28T12:34:55.454Z,102022.78
2022-12-28T12:36:06.286Z,102030.00
2022-12-28T12:37:38.581Z,102018.97
2022-12-28T12:38:58.309Z,102014.81
2022-12-28T12:40:34.397Z,102014.22
2022-12-28T12:41:50.659Z,102018.50
2022-12-28T12:43:13.311Z,102023.75
2022-12-28T12:44:24.259Z,102003.63
2022-12-28T12:45:40.154Z,102002.06
2022-12-28T12:47:09.970Z,102006.94